Time;durP1;ratioP1;P1;durP2;ratioP2;P2;SDS_P1;SDS_P2;PMS_P1;PMS_P2;Temp;Humidity;BMP_temperature;BMP_pressure;BME280_temperature;BME280_humidity;BME280_pressure;Samples;Min_cycle;Max_cycle;Signal;HPM_P1;HPM_P2
2023/04/17 00:01:46;;;;;;;29.80;20.40;;;10.30;99.90;;;;;;5139425;27;20231;-79
2023/04/17 00:04:13;;;;;;;28.52;21.20;;;10.40;99.90;;;;;;5132633;27;20229;-79
2023/04/17 00:06:44;;;;;;;25.75;18.55;;;10.50;99.90;;;;;;5127117;27;20275;-80
2023/04/17 00:09:11;;;;;;;30.63;21.25;;;10.70;99.90;;;;;;5106274;27;20210;-80
2023/04/17 00:11:39;;;;;;;30.52;19.90;;;10.70;99.90;;;;;;5121075;27;20225;-80
2023/04/17 00:14:05;;;;;;;26.65;20.38;;;10.60;99.90;;;;;;5116269;28;20248;-79
2023/04/17 00:16:33;;;;;;;33.35;21.42;;;10.60;99.90;;;;;;5127322;27;20202;-79
2023/04/17 00:19:01;;;;;;;24.55;18.75;;;10.70;99.90;;;;;;5121764;27;20212;-79
2023/04/17 00:21:31;;;;;;;30.05;20.95;;;10.70;99.90;;;;;;5133866;27;20854;-80
2023/04/17 00:23:58;;;;;;;30.63;20.50;;;10.70;99.90;;;;;;5127566;27;20223;-80
2023/04/17 00:26:25;;;;;;;28.25;21.42;;;10.80;99.90;;;;;;5127298;27;20266;-80
2023/04/17 00:28:52;;;;;;;30.20;22.27;;;10.70;99.90;;;;;;5128999;27;20261;-79
2023/04/17 00:31:19;;;;;;;27.48;20.23;;;10.90;99.90;;;;;;5121338;27;20239;-79
2023/04/17 00:33:47;;;;;;;30.67;21.88;;;10.70;99.90;;;;;;5134434;27;20214;-80
2023/04/17 00:36:14;;;;;;;31.60;20.20;;;10.60;99.90;;;;;;5126951;27;20215;-80
2023/04/17 00:38:41;;;;;;;28.60;21.65;;;10.60;99.90;;;;;;5135460;27;20260;-81
2023/04/17 00:41:10;;;;;;;30.88;21.60;;;10.40;99.90;;;;;;5137773;27;20211;-81
2023/04/17 00:43:37;;;;;;;28.17;21.27;;;10.30;99.90;;;;;;5123263;27;20741;-78
2023/04/17 00:46:04;;;;;;;32.92;24.15;;;10.30;99.90;;;;;;5135803;27;20283;-78
2023/04/17 00:48:34;;;;;;;31.60;23.80;;;10.10;99.90;;;;;;5131459;27;20209;-80
2023/04/17 00:51:02;;;;;;;34.45;24.33;;;10.00;99.90;;;;;;5118309;27;20220;-80
2023/04/17 00:53:31;;;;;;;34.28;24.35;;;10.10;99.90;;;;;;5133503;27;20209;-79
2023/04/17 00:55:59;;;;;;;29.95;23.25;;;10.00;99.90;;;;;;5125585;27;20214;-78
2023/04/17 00:58:27;;;;;;;32.30;24.70;;;10.00;99.90;;;;;;5134883;27;20466;-81
2023/04/17 01:00:54;;;;;;;28.50;23.17;;;9.90;99.90;;;;;;5126911;27;20221;-80
2023/04/17 01:03:21;;;;;;;31.08;22.20;;;9.80;99.90;;;;;;5114499;28;20206;-80
2023/04/17 01:05:50;;;;;;;39.63;26.65;;;9.90;99.90;;;;;;5107297;27;20237;-80
2023/04/17 01:08:18;;;;;;;32.63;24.33;;;9.80;99.90;;;;;;5144756;27;20209;-80
2023/04/17 01:10:46;;;;;;;36.50;23.75;;;9.70;99.90;;;;;;5152238;27;20195;-80
2023/04/17 01:13:13;;;;;;;30.98;23.85;;;9.70;99.90;;;;;;5120230;28;20269;-81
2023/04/17 01:15:40;;;;;;;35.00;25.92;;;9.60;99.90;;;;;;5116352;28;20208;-81
2023/04/17 01:18:07;;;;;;;36.08;25.15;;;9.60;99.90;;;;;;5139786;27;20212;-81
2023/04/17 01:20:34;;;;;;;36.67;26.20;;;9.50;99.90;;;;;;5121382;28;20225;-80
2023/04/17 01:23:02;;;;;;;34.67;25.17;;;9.60;99.90;;;;;;5139474;28;20646;-81
2023/04/17 01:25:29;;;;;;;42.47;23.67;;;9.60;99.90;;;;;;5134016;28;20214;-80
2023/04/17 01:27:55;;;;;;;37.30;27.38;;;9.50;99.90;;;;;;5129190;28;20191;-80
2023/04/17 01:30:23;;;;;;;40.70;26.45;;;9.60;99.90;;;;;;5125047;28;20412;-80
2023/04/17 01:32:53;;;;;;;38.65;27.00;;;9.90;99.90;;;;;;5109984;28;20231;-80
2023/04/17 01:35:21;;;;;;;43.55;28.63;;;9.90;99.90;;;;;;5129105;28;20490;-79
2023/04/17 01:37:48;;;;;;;38.70;27.80;;;10.00;99.90;;;;;;5137709;28;20237;-80
2023/04/17 01:40:15;;;;;;;38.22;26.02;;;9.80;99.90;;;;;;5123568;28;20242;-79
2023/04/17 01:42:42;;;;;;;33.85;26.95;;;10.00;99.90;;;;;;5121074;28;20206;-80
2023/04/17 01:45:10;;;;;;;33.42;25.00;;;10.10;99.90;;;;;;5127987;28;20260;-81
2023/04/17 01:47:37;;;;;;;40.97;26.52;;;10.20;99.90;;;;;;5131080;28;20215;-80
2023/04/17 01:50:07;;;;;;;42.67;27.45;;;10.30;99.90;;;;;;5120082;28;20212;-80
2023/04/17 01:52:35;;;;;;;35.03;25.38;;;10.30;99.90;;;;;;5131601;28;20252;-80
2023/04/17 01:55:03;;;;;;;35.22;24.40;;;10.40;99.90;;;;;;5133527;27;20363;-81
2023/04/17 01:57:31;;;;;;;38.67;26.83;;;10.40;99.90;;;;;;5125992;27;20215;-81
2023/04/17 01:59:58;;;;;;;33.13;24.38;;;10.40;99.90;;;;;;5108921;27;20783;-81
2023/04/17 02:02:25;;;;;;;32.47;24.30;;;10.40;99.90;;;;;;5127739;27;20275;-81
2023/04/17 02:04:52;;;;;;;34.65;24.48;;;10.40;99.90;;;;;;5131190;27;20632;-81
2023/04/17 02:07:20;;;;;;;39.65;25.88;;;10.50;99.90;;;;;;5117645;28;20230;-81
2023/04/17 02:09:47;;;;;;;36.60;27.67;;;10.50;99.90;;;;;;5135290;27;20302;-79
2023/04/17 02:12:15;;;;;;;32.47;23.63;;;10.30;99.90;;;;;;5139845;27;20245;-78
2023/04/17 02:14:41;;;;;;;31.77;22.92;;;10.20;99.90;;;;;;5131279;27;20213;-78
2023/04/17 02:17:08;;;;;;;36.65;25.83;;;10.20;99.90;;;;;;5118250;27;20407;-80
2023/04/17 02:19:35;;;;;;;32.15;22.35;;;10.10;99.90;;;;;;5133840;27;20254;-78
2023/04/17 02:22:02;;;;;;;31.90;22.75;;;10.10;99.90;;;;;;5125797;27;20205;-79
2023/04/17 02:24:30;;;;;;;31.05;22.08;;;9.90;99.90;;;;;;5126023;27;20224;-80
2023/04/17 02:26:57;;;;;;;31.02;22.33;;;9.90;99.90;;;;;;5119900;27;20211;-80
2023/04/17 02:29:24;;;;;;;32.40;25.52;;;10.00;99.90;;;;;;5124030;27;20205;-80
2023/04/17 02:31:51;;;;;;;32.95;23.98;;;9.90;99.90;;;;;;5103507;27;20231;-80
2023/04/17 02:34:19;;;;;;;32.95;23.65;;;9.90;99.90;;;;;;5129862;27;20425;-81
2023/04/17 02:36:46;;;;;;;34.38;23.58;;;9.90;99.90;;;;;;5131230;27;20196;-79
2023/04/17 02:39:13;;;;;;;31.40;23.45;;;9.90;99.90;;;;;;5134415;27;20203;-79
2023/04/17 02:41:40;;;;;;;36.25;25.67;;;9.80;99.90;;;;;;5135259;27;20268;-81
2023/04/17 02:44:07;;;;;;;37.97;25.50;;;10.00;99.90;;;;;;5120885;27;20203;-81
2023/04/17 02:46:34;;;;;;;29.45;23.60;;;10.10;99.90;;;;;;5109640;28;20274;-83
2023/04/17 02:49:01;;;;;;;34.00;23.42;;;10.20;99.90;;;;;;5128908;27;20210;-81
2023/04/17 02:51:28;;;;;;;38.65;25.77;;;10.30;99.90;;;;;;5128269;27;20402;-81
2023/04/17 02:53:55;;;;;;;34.38;24.17;;;10.30;99.90;;;;;;5124662;27;20249;-82
2023/04/17 02:56:23;;;;;;;34.35;25.75;;;10.40;99.90;;;;;;5138959;27;20225;-80
2023/04/17 02:58:49;;;;;;;29.65;22.08;;;10.40;99.90;;;;;;5131449;27;20223;-80
2023/04/17 03:01:17;;;;;;;31.77;22.05;;;10.50;99.90;;;;;;5123647;27;20213;-80
2023/04/17 03:03:46;;;;;;;35.92;24.13;;;10.60;99.90;;;;;;5127019;27;20211;-81
2023/04/17 03:06:13;;;;;;;35.78;24.95;;;10.50;99.90;;;;;;5131053;27;20488;-81
2023/04/17 03:08:40;;;;;;;32.95;23.50;;;10.50;99.90;;;;;;5125143;27;20215;-81
2023/04/17 03:11:07;;;;;;;29.63;23.25;;;10.60;99.90;;;;;;5129790;27;20207;-81
2023/04/17 03:13:37;;;;;;;30.58;22.20;;;10.50;99.90;;;;;;5126909;27;20295;-81
2023/04/17 03:16:05;;;;;;;33.95;24.90;;;10.40;99.90;;;;;;5131360;27;20237;-82
2023/04/17 03:18:33;;;;;;;32.10;23.63;;;10.40;99.90;;;;;;5131973;27;20212;-82
2023/04/17 03:21:00;;;;;;;34.05;24.65;;;10.50;99.90;;;;;;5139482;27;20413;-83
2023/04/17 03:23:27;;;;;;;36.78;25.45;;;10.30;99.90;;;;;;5137186;27;20211;-81
2023/04/17 03:25:55;;;;;;;36.42;23.77;;;10.00;99.90;;;;;;5133540;27;20212;-81
2023/04/17 03:28:22;;;;;;;38.42;26.27;;;10.20;99.90;;;;;;5128603;27;20221;-82
2023/04/17 03:30:50;;;;;;;31.42;23.85;;;10.40;99.90;;;;;;5139015;27;20220;-82
2023/04/17 03:33:17;;;;;;;39.88;25.63;;;10.60;99.90;;;;;;5127391;27;20727;-81
2023/04/17 03:35:45;;;;;;;40.53;28.85;;;10.20;99.90;;;;;;5140697;27;20214;-82
2023/04/17 03:38:15;;;;;;;35.33;26.40;;;10.00;99.90;;;;;;5130936;27;20203;-82
2023/04/17 03:40:42;;;;;;;30.00;22.75;;;10.10;99.90;;;;;;5129694;27;20204;-81
2023/04/17 03:43:10;;;;;;;30.42;22.30;;;10.20;99.90;;;;;;5122392;27;20197;-81
2023/04/17 03:45:36;;;;;;;32.63;24.63;;;10.20;99.90;;;;;;5116084;27;20207;-82
2023/04/17 03:48:03;;;;;;;35.85;25.75;;;10.30;99.90;;;;;;5138072;27;20216;-82
2023/04/17 03:50:31;;;;;;;39.47;27.30;;;10.30;99.90;;;;;;5121425;27;20204;-82
2023/04/17 03:52:58;;;;;;;30.88;23.92;;;10.30;99.90;;;;;;5124986;27;20238;-82
2023/04/17 03:55:25;;;;;;;37.00;26.73;;;10.50;99.90;;;;;;5120013;28;20203;-83
2023/04/17 03:57:56;;;;;;;37.55;28.00;;;10.60;99.90;;;;;;5127057;27;20396;-84
2023/04/17 04:00:23;;;;;;;39.28;27.38;;;10.20;99.90;;;;;;5125725;27;20200;-82
2023/04/17 04:02:50;;;;;;;32.28;25.95;;;9.80;99.90;;;;;;5125068;27;20208;-82
2023/04/17 04:05:17;;;;;;;38.80;27.63;;;9.40;99.90;;;;;;5137716;27;20640;-83
2023/04/17 04:07:44;;;;;;;42.00;26.27;;;9.50;99.90;;;;;;5138851;27;20202;-83
2023/04/17 04:10:11;;;;;;;34.08;25.40;;;9.60;99.90;;;;;;5140941;27;20269;-82
2023/04/17 04:12:38;;;;;;;34.88;24.58;;;9.80;99.90;;;;;;5139094;27;20231;-84
2023/04/17 04:15:06;;;;;;;38.53;27.63;;;9.90;99.90;;;;;;5130956;27;20203;-82
2023/04/17 04:17:37;;;;;;;38.88;27.95;;;9.80;99.90;;;;;;5133077;27;20204;-80
2023/04/17 04:20:07;;;;;;;32.00;24.10;;;9.80;99.90;;;;;;5135331;27;20206;-82
2023/04/17 04:22:35;;;;;;;30.25;24.13;;;9.90;99.90;;;;;;5136582;27;20208;-83
2023/04/17 04:25:03;;;;;;;34.20;24.23;;;10.00;99.90;;;;;;5124537;27;20207;-83
2023/04/17 04:27:31;;;;;;;33.33;23.20;;;9.80;99.90;;;;;;5125216;27;20211;-81
2023/04/17 04:30:01;;;;;;;33.35;23.65;;;9.90;99.90;;;;;;5131273;27;20211;-80
2023/04/17 04:32:28;;;;;;;32.35;24.42;;;9.80;99.90;;;;;;5108216;27;20554;-81
2023/04/17 04:34:57;;;;;;;35.17;23.23;;;9.90;99.90;;;;;;5132073;27;20271;-81
2023/04/17 04:37:28;;;;;;;30.17;22.13;;;9.90;99.90;;;;;;5135485;27;20716;-82
2023/04/17 04:40:00;;;;;;;32.78;23.83;;;10.00;99.90;;;;;;5124832;27;20211;-81
2023/04/17 04:42:28;;;;;;;31.83;22.98;;;10.00;99.90;;;;;;5110561;28;20202;-81
2023/04/17 04:44:55;;;;;;;36.95;23.98;;;9.80;99.90;;;;;;5123599;27;20204;-81
2023/04/17 04:47:22;;;;;;;33.70;21.95;;;9.90;99.90;;;;;;5132052;27;20203;-80
2023/04/17 04:49:49;;;;;;;29.40;21.13;;;10.00;99.90;;;;;;5109578;28;20334;-82
2023/04/17 04:52:16;;;;;;;30.95;23.83;;;9.90;99.90;;;;;;5136074;27;20227;-81
2023/04/17 04:54:43;;;;;;;29.23;22.75;;;10.10;99.90;;;;;;5130289;27;20200;-82
2023/04/17 04:57:10;;;;;;;31.48;21.60;;;10.00;99.90;;;;;;5129525;27;20385;-80
2023/04/17 04:59:38;;;;;;;30.23;21.70;;;10.10;99.90;;;;;;5129032;27;20592;-83
2023/04/17 05:02:05;;;;;;;32.22;22.98;;;10.00;99.90;;;;;;5122036;27;20202;-81
2023/04/17 05:04:32;;;;;;;29.55;22.05;;;9.80;99.90;;;;;;5128245;27;20204;-83
2023/04/17 05:06:59;;;;;;;30.88;23.02;;;9.90;99.90;;;;;;5137242;27;20197;-84
2023/04/17 05:09:26;;;;;;;31.38;25.58;;;9.90;99.90;;;;;;5128946;27;20194;-82
2023/04/17 05:11:53;;;;;;;33.40;24.90;;;10.10;99.90;;;;;;5148330;27;20197;-80
2023/04/17 05:14:21;;;;;;;30.67;23.60;;;10.20;99.90;;;;;;5137443;27;20216;-81
2023/04/17 05:16:49;;;;;;;28.13;20.70;;;10.30;99.90;;;;;;5111705;28;20209;-81
2023/04/17 05:19:16;;;;;;;31.38;22.10;;;10.40;99.90;;;;;;5125515;27;20199;-81
2023/04/17 05:21:43;;;;;;;35.60;23.80;;;10.40;99.90;;;;;;5125057;28;20232;-81
2023/04/17 05:24:10;;;;;;;31.65;22.23;;;10.30;99.90;;;;;;5132499;28;20218;-79
2023/04/17 05:26:37;;;;;;;32.50;22.95;;;10.10;99.90;;;;;;5122347;27;20236;-81
2023/04/17 05:29:05;;;;;;;30.13;23.10;;;10.10;99.90;;;;;;5120773;28;20214;-81
2023/04/17 05:31:32;;;;;;;32.85;24.77;;;10.20;99.90;;;;;;5109830;28;20227;-79
2023/04/17 05:33:59;;;;;;;32.45;24.00;;;10.40;99.90;;;;;;5132035;28;20569;-83
2023/04/17 05:36:26;;;;;;;30.65;22.90;;;10.50;99.90;;;;;;5114317;28;20200;-82
2023/04/17 05:38:53;;;;;;;31.27;23.67;;;10.70;99.90;;;;;;5120708;28;20205;-82
2023/04/17 05:41:20;;;;;;;33.22;22.17;;;10.80;99.90;;;;;;5124694;28;20205;-81
2023/04/17 05:43:47;;;;;;;31.23;24.00;;;11.00;99.90;;;;;;5127541;28;20250;-81
2023/04/17 05:46:15;;;;;;;29.65;20.73;;;11.10;99.90;;;;;;5137514;28;20208;-81
2023/04/17 05:48:42;;;;;;;25.92;19.92;;;11.30;99.90;;;;;;5133648;28;20548;-83
2023/04/17 05:51:08;;;;;;;24.95;19.52;;;11.40;99.90;;;;;;5132019;28;20238;-80
2023/04/17 05:53:36;;;;;;;26.52;19.90;;;11.50;99.90;;;;;;5135592;28;20270;-82
2023/04/17 05:56:03;;;;;;;29.77;22.40;;;11.80;99.90;;;;;;5120619;28;20251;-81
2023/04/17 05:58:30;;;;;;;23.25;19.17;;;12.00;99.90;;;;;;5100444;28;20201;-81
2023/04/17 06:00:57;;;;;;;27.10;19.60;;;12.10;99.90;;;;;;5111424;28;20386;-82
2023/04/17 06:03:25;;;;;;;26.58;19.45;;;12.30;99.90;;;;;;5113531;28;20205;-81
2023/04/17 06:05:52;;;;;;;21.80;17.67;;;12.60;99.90;;;;;;5129831;28;20205;-83
2023/04/17 06:08:20;;;;;;;23.00;18.27;;;12.70;99.90;;;;;;5124231;28;20209;-82
2023/04/17 06:10:49;;;;;;;45.08;25.27;;;12.80;99.90;;;;;;5133759;28;20486;-81
2023/04/17 06:13:15;;;;;;;29.10;20.98;;;13.20;99.90;;;;;;5120986;28;20229;-84
2023/04/17 06:15:42;;;;;;;26.10;18.60;;;13.60;99.90;;;;;;5126774;28;20394;-81
2023/04/17 06:18:09;;;;;;;27.63;18.67;;;13.90;99.90;;;;;;5129862;28;20206;-85
2023/04/17 06:20:36;;;;;;;26.48;17.98;;;13.90;99.90;;;;;;5118261;28;20646;-84
2023/04/17 06:23:05;;;;;;;20.63;16.73;;;13.80;99.90;;;;;;5119709;28;20209;-82
2023/04/17 06:25:32;;;;;;;22.93;17.43;;;13.80;99.90;;;;;;5135073;28;20209;-81
2023/04/17 06:27:59;;;;;;;24.30;16.50;;;14.40;99.90;;;;;;5126943;28;20457;-81
2023/04/17 06:30:26;;;;;;;18.83;15.47;;;15.00;99.90;;;;;;5123742;28;20456;-80
2023/04/17 06:32:53;;;;;;;19.50;17.00;;;15.30;99.90;;;;;;5132412;28;20448;-83
2023/04/17 06:35:21;;;;;;;26.20;16.10;;;15.50;99.90;;;;;;5130703;28;20412;-85
2023/04/17 06:37:47;;;;;;;18.43;16.43;;;15.60;99.90;;;;;;5118297;28;21008;-81
2023/04/17 06:40:14;;;;;;;19.60;14.43;;;15.50;99.90;;;;;;5124399;27;20453;-83
2023/04/17 06:42:41;;;;;;;16.47;13.93;;;16.60;99.90;;;;;;5118427;27;20435;-84
2023/04/17 06:45:09;;;;;;;16.57;14.00;;;17.10;99.90;;;;;;5141746;27;20419;-86
2023/04/17 06:47:35;;;;;;;18.27;14.80;;;16.30;99.90;;;;;;5127268;27;20442;-81
2023/04/17 06:50:03;;;;;;;16.67;13.80;;;15.30;99.90;;;;;;5121749;27;20561;-81
2023/04/17 06:52:30;;;;;;;16.17;14.47;;;15.40;99.90;;;;;;5122645;28;20409;-81
2023/04/17 06:55:01;;;;;;;19.50;15.13;;;15.80;99.90;;;;;;5117387;27;20474;-81
2023/04/17 06:57:28;;;;;;;18.17;14.77;;;16.80;99.90;;;;;;5133276;27;20405;-82
2023/04/17 06:59:55;;;;;;;18.07;14.37;;;17.90;99.90;;;;;;5129561;27;20436;-81
2023/04/17 07:02:22;;;;;;;15.63;13.20;;;18.30;99.90;;;;;;5142500;27;20432;-84
2023/04/17 07:04:49;;;;;;;17.40;14.73;;;17.70;99.90;;;;;;5115418;28;20750;-81
2023/04/17 07:07:16;;;;;;;18.47;15.03;;;18.70;99.90;;;;;;5131271;27;20420;-82
2023/04/17 07:09:44;;;;;;;17.43;14.90;;;18.70;99.90;;;;;;5112925;27;20427;-81
2023/04/17 07:12:11;;;;;;;17.83;14.80;;;20.60;99.90;;;;;;5128148;27;20420;-81
2023/04/17 07:14:39;;;;;;;17.87;13.60;;;22.00;99.90;;;;;;5103860;28;20523;-80
2023/04/17 07:17:06;;;;;;;15.60;13.07;;;22.30;99.90;;;;;;5127492;27;20692;-82
2023/04/17 07:19:33;;;;;;;15.17;13.50;;;22.30;99.90;;;;;;5125024;27;20413;-81
2023/04/17 07:22:01;;;;;;;20.20;17.53;;;23.00;99.90;;;;;;5124426;27;20765;-80
2023/04/17 07:24:28;;;;;;;21.33;19.03;;;23.30;99.90;;;;;;5137725;27;20412;-81
2023/04/17 07:26:55;;;;;;;20.67;18.37;;;23.20;99.90;;;;;;5129898;27;20477;-83
2023/04/17 07:29:22;;;;;;;20.80;17.43;;;23.30;99.90;;;;;;5133315;27;20424;-84
2023/04/17 07:31:49;;;;;;;19.00;16.90;;;22.00;99.90;;;;;;5114922;27;20482;-83
2023/04/17 07:34:16;;;;;;;22.60;16.70;;;22.00;99.90;;;;;;5119260;27;20534;-81
2023/04/17 07:36:44;;;;;;;14.60;13.10;;;21.50;99.90;;;;;;5136654;27;20411;-80
2023/04/17 07:39:11;;;;;;;14.37;12.67;;;21.40;99.90;;;;;;5120493;27;20428;-83
2023/04/17 07:41:38;;;;;;;14.60;13.10;;;21.90;99.90;;;;;;5127159;27;20584;-81
2023/04/17 07:44:05;;;;;;;17.83;15.97;;;22.10;99.90;;;;;;5106027;27;20445;-80
2023/04/17 07:46:32;;;;;;;19.87;17.30;;;22.30;99.90;;;;;;5122620;27;20462;-82
2023/04/17 07:48:59;;;;;;;19.67;17.77;;;22.90;99.90;;;;;;5125348;28;20408;-83
2023/04/17 07:51:26;;;;;;;14.50;13.00;;;22.70;99.90;;;;;;5123505;28;20965;-81
2023/04/17 07:53:54;;;;;;;16.57;13.50;;;23.10;99.90;;;;;;5123804;27;20469;-81
2023/04/17 07:56:21;;;;;;;18.17;16.37;;;23.30;99.90;;;;;;5131087;27;20474;-80
2023/04/17 07:58:50;;;;;;;16.00;14.30;;;23.30;99.90;;;;;;5129274;27;20421;-81
2023/04/17 08:01:18;;;;;;;15.60;13.93;;;23.00;99.90;;;;;;5132858;27;20748;-81
2023/04/17 08:03:44;;;;;;;17.60;14.30;;;21.50;99.90;;;;;;5127676;27;20510;-84
2023/04/17 08:06:12;;;;;;;14.43;12.93;;;22.10;99.90;;;;;;5122521;28;20446;-81
2023/04/17 08:08:39;;;;;;;17.57;13.20;;;21.00;99.90;;;;;;5119457;27;20407;-80
2023/04/17 08:11:07;;;;;;;14.47;12.40;;;21.30;99.90;;;;;;5107378;27;21730;-81
2023/04/17 08:13:34;;;;;;;17.00;13.93;;;21.50;99.90;;;;;;5127310;27;20476;-82
2023/04/17 08:16:00;;;;;;;15.20;13.70;;;21.00;99.90;;;;;;5110273;27;20413;-82
2023/04/17 08:18:28;;;;;;;14.93;13.50;;;21.40;99.90;;;;;;5129946;27;20412;-82
2023/04/17 08:20:55;;;;;;;14.40;12.80;;;22.30;99.90;;;;;;5111233;27;20759;-82
2023/04/17 08:23:21;;;;;;;15.87;14.27;;;22.90;99.90;;;;;;5121928;27;20445;-83
2023/04/17 08:25:49;;;;;;;15.00;13.37;;;21.50;99.90;;;;;;5130455;27;20453;-81
2023/04/17 08:28:16;;;;;;;16.50;12.83;;;22.90;99.90;;;;;;5127296;27;20513;-80
2023/04/17 08:30:42;;;;;;;18.93;15.10;;;23.70;99.90;;;;;;5122487;27;20640;-80
2023/04/17 08:33:12;;;;;;;16.50;13.57;;;24.60;99.90;;;;;;5135600;27;20710;-80
2023/04/17 08:35:39;;;;;;;15.00;13.40;;;24.10;99.90;;;;;;5133836;27;20412;-82
2023/04/17 08:38:07;;;;;;;15.10;13.50;;;22.40;99.90;;;;;;5119633;27;21194;-81
2023/04/17 08:40:34;;;;;;;16.07;13.93;;;23.60;99.90;;;;;;5119419;28;20417;-84
2023/04/17 08:43:02;;;;;;;14.23;12.73;;;23.90;99.90;;;;;;5129841;27;20438;-82
2023/04/17 08:45:29;;;;;;;15.13;13.37;;;22.80;99.90;;;;;;5112463;28;20449;-84
2023/04/17 08:47:56;;;;;;;15.87;13.47;;;21.90;99.90;;;;;;5127431;27;20731;-81
2023/04/17 08:50:23;;;;;;;16.83;14.13;;;21.70;99.90;;;;;;5128626;27;20446;-79
2023/04/17 08:52:51;;;;;;;16.70;13.80;;;20.90;99.90;;;;;;5127482;27;20486;-84
2023/04/17 08:55:21;;;;;;;14.10;12.70;;;20.60;99.90;;;;;;5118939;28;20428;-83
2023/04/17 08:58:02;;;;;;;16.63;14.17;;;18.80;99.90;;;;;;5127344;27;20416;-82
2023/04/17 09:00:32;;;;;;;19.83;14.60;;;20.00;99.90;;;;;;5110747;28;21045;-83
2023/04/17 09:03:02;;;;;;;15.87;13.17;;;21.30;99.90;;;;;;5127930;27;20413;-81
2023/04/17 09:05:35;;;;;;;14.30;12.80;;;19.60;99.90;;;;;;5130121;27;20409;-80
2023/04/17 09:08:14;;;;;;;17.17;13.60;;;18.50;99.90;;;;;;5111327;28;20444;-81
2023/04/17 09:10:45;;;;;;;16.57;14.87;;;18.50;99.90;;;;;;5118744;28;20420;-80
2023/04/17 09:13:14;;;;;;;21.80;15.40;;;20.00;99.90;;;;;;5140814;27;20496;-83
2023/04/17 09:15:42;;;;;;;18.97;14.40;;;19.20;99.90;;;;;;5120418;28;20416;-85
2023/04/17 09:18:25;;;;;;;17.77;14.50;;;19.60;99.90;;;;;;5131063;27;20468;-82
2023/04/17 09:20:53;;;;;;;21.90;17.17;;;20.00;99.90;;;;;;5109081;28;20432;-83
2023/04/17 09:23:21;;;;;;;17.77;15.87;;;18.40;99.90;;;;;;5107737;28;20439;-80
2023/04/17 09:26:08;;;;;;;19.30;17.17;;;16.50;99.90;;;;;;5119200;28;20466;-79
2023/04/17 09:28:38;;;;;;;21.20;17.00;;;16.10;99.90;;;;;;5135482;28;20445;-85
2023/04/17 09:31:26;;;;;;;22.93;16.00;;;15.70;99.90;;;;;;5132179;28;20419;-81
2023/04/17 09:34:01;;;;;;;19.63;15.60;;;15.80;99.90;;;;;;5130206;28;20564;-81
2023/04/17 09:36:31;;;;;;;24.77;18.57;;;16.20;99.90;;;;;;5103407;28;20490;-79
2023/04/17 09:39:00;;;;;;;25.20;18.20;;;16.60;99.90;;;;;;5107089;28;20662;-81
2023/04/17 09:41:29;;;;;;;24.97;16.80;;;17.10;99.90;;;;;;5125776;28;20444;-83
2023/04/17 09:44:05;;;;;;;22.93;16.30;;;17.70;99.90;;;;;;5119685;28;20412;-81
2023/04/17 09:46:44;;;;;;;22.50;15.80;;;17.20;99.90;;;;;;5127773;28;20436;-83
2023/04/17 09:49:22;;;;;;;22.93;17.73;;;16.70;99.90;;;;;;5115063;28;20483;-83
2023/04/17 09:51:49;;;;;;;26.80;17.90;;;16.20;99.90;;;;;;5128210;28;20436;-81
2023/04/17 09:54:19;;;;;;;24.07;17.30;;;16.20;99.90;;;;;;5119198;28;20474;-81
2023/04/17 09:56:48;;;;;;;22.50;16.60;;;16.30;99.90;;;;;;5129046;28;20569;-81
2023/04/17 09:59:15;;;;;;;19.90;15.77;;;16.70;99.90;;;;;;5126077;28;20420;-80
2023/04/17 10:01:43;;;;;;;17.77;15.07;;;16.30;99.90;;;;;;5128611;28;20622;-81
2023/04/17 10:04:10;;;;;;;24.40;18.70;;;16.40;99.90;;;;;;5130510;28;20440;-81
2023/04/17 10:06:38;;;;;;;22.53;16.87;;;16.70;99.90;;;;;;5128099;28;20444;-82
2023/04/17 10:09:06;;;;;;;20.33;16.13;;;16.40;99.90;;;;;;5126423;28;20494;-82
2023/04/17 10:11:37;;;;;;;23.93;19.40;;;16.30;99.90;;;;;;5128345;28;20446;-86
2023/04/17 10:14:26;;;;;;;21.93;17.30;;;16.00;99.90;;;;;;5132731;27;20847;-82
2023/04/17 10:16:53;;;;;;;24.47;17.50;;;15.90;99.90;;;;;;5136425;27;20438;-84
2023/04/17 10:19:30;;;;;;;21.90;18.17;;;16.10;99.90;;;;;;5135569;27;20446;-81
2023/04/17 10:22:18;;;;;;;19.93;16.77;;;15.60;99.90;;;;;;5113222;27;20438;-81
2023/04/17 10:24:47;;;;;;;27.77;18.93;;;15.70;99.90;;;;;;5125819;28;20434;-84
2023/04/17 10:27:26;;;;;;;24.30;18.67;;;16.00;99.90;;;;;;5121808;27;20494;-81
2023/04/17 10:30:04;;;;;;;21.50;18.20;;;16.40;99.90;;;;;;5139868;27;20644;-83
2023/04/17 10:32:33;;;;;;;18.87;15.13;;;16.20;99.90;;;;;;5122732;28;20452;-83
2023/04/17 10:35:20;;;;;;;22.70;17.90;;;15.90;99.90;;;;;;5128724;27;20457;-82
2023/04/17 10:37:47;;;;;;;19.50;15.40;;;15.90;99.90;;;;;;5128802;27;20442;-81
2023/04/17 10:40:20;;;;;;;20.00;16.57;;;16.20;99.90;;;;;;5120028;28;20485;-81
2023/04/17 10:43:16;;;;;;;23.80;17.33;;;16.40;99.90;;;;;;5123697;28;20428;-82
2023/04/17 10:45:56;;;;;;;20.70;15.70;;;16.30;99.90;;;;;;5142146;27;20471;-83
2023/04/17 10:48:51;;;;;;;20.53;15.43;;;15.90;99.90;;;;;;5143366;27;20436;-83
2023/04/17 10:51:27;;;;;;;21.57;16.10;;;15.40;99.90;;;;;;5125616;28;20467;-80
2023/04/17 10:53:59;;;;;;;21.40;17.03;;;15.30;99.90;;;;;;5138959;27;20681;-80
2023/04/17 10:56:43;;;;;;;26.87;15.17;;;15.80;99.90;;;;;;5136043;27;20417;-82
2023/04/17 10:59:17;;;;;;;18.20;13.80;;;16.30;99.90;;;;;;5143580;27;20421;-80
2023/04/17 11:01:48;;;;;;;20.13;14.67;;;16.60;99.90;;;;;;5117154;28;20444;-83
2023/04/17 11:04:30;;;;;;;22.30;15.00;;;16.20;99.90;;;;;;5112970;28;20408;-81
2023/04/17 11:06:58;;;;;;;21.50;14.30;;;15.60;99.90;;;;;;5108060;28;20754;-82
2023/04/17 11:09:27;;;;;;;17.63;14.20;;;15.40;99.90;;;;;;5126716;27;20412;-81
2023/04/17 11:11:57;;;;;;;20.20;15.10;;;15.40;99.90;;;;;;5112219;27;20442;-81
2023/04/17 11:14:25;;;;;;;19.33;15.13;;;15.60;99.90;;;;;;5123607;27;20630;-83
2023/04/17 11:16:52;;;;;;;22.03;17.30;;;15.70;99.90;;;;;;5137427;27;20473;-83
2023/04/17 11:19:21;;;;;;;20.03;15.77;;;15.10;99.90;;;;;;5125799;27;20429;-84
2023/04/17 11:21:51;;;;;;;17.93;14.70;;;14.80;99.90;;;;;;5142692;27;20770;-82
2023/04/17 11:24:22;;;;;;;20.60;14.37;;;14.70;99.90;;;;;;5135662;27;20437;-83
2023/04/17 11:26:49;;;;;;;17.40;14.60;;;14.80;99.90;;;;;;5127995;27;20507;-83
2023/04/17 11:29:18;;;;;;;16.13;13.07;;;15.00;99.90;;;;;;5130045;27;20456;-81
2023/04/17 11:31:46;;;;;;;17.60;14.60;;;14.90;99.90;;;;;;5129295;27;20782;-82
2023/04/17 11:34:15;;;;;;;16.20;12.63;;;14.90;99.90;;;;;;5131864;27;20480;-82
2023/04/17 11:37:12;;;;;;;12.40;10.77;;;15.40;99.90;;;;;;5130782;27;20453;-81
2023/04/17 11:39:42;;;;;;;18.60;13.63;;;15.50;99.90;;;;;;5136285;27;20595;-82
2023/04/17 11:42:10;;;;;;;18.23;12.47;;;15.30;99.90;;;;;;5138364;27;20431;-82
2023/04/17 11:44:43;;;;;;;13.90;12.17;;;15.10;99.90;;;;;;5139306;27;20491;-83
2023/04/17 11:47:10;;;;;;;14.17;12.40;;;14.80;99.90;;;;;;5136514;27;20434;-82
2023/04/17 11:49:38;;;;;;;14.63;12.97;;;14.90;99.90;;;;;;5142560;27;20440;-83
2023/04/17 11:52:05;;;;;;;16.63;14.90;;;15.00;99.90;;;;;;5139855;27;20434;-81
2023/04/17 11:54:36;;;;;;;12.93;11.07;;;15.10;99.90;;;;;;5123750;28;20478;-82
2023/04/17 11:57:12;;;;;;;12.77;11.20;;;15.20;99.90;;;;;;5139824;27;20461;-84
2023/04/17 11:59:41;;;;;;;16.37;11.20;;;15.20;99.90;;;;;;5138452;27;20437;-80
2023/04/17 12:02:08;;;;;;;10.93;9.87;;;15.10;99.90;;;;;;5138884;27;20444;-82
2023/04/17 12:04:36;;;;;;;14.60;10.13;;;15.20;99.90;;;;;;5126772;27;20453;-81
2023/04/17 12:07:05;;;;;;;11.93;10.40;;;15.30;99.90;;;;;;5139021;27;20465;-85
2023/04/17 12:09:33;;;;;;;10.67;9.53;;;15.40;99.90;;;;;;5130857;27;20453;-84
2023/04/17 12:12:03;;;;;;;11.40;8.67;;;15.30;99.90;;;;;;5131997;27;20438;-83
2023/04/17 12:14:31;;;;;;;12.07;10.87;;;15.40;99.90;;;;;;5136205;27;20465;-82
2023/04/17 12:17:00;;;;;;;12.20;11.00;;;15.40;99.90;;;;;;5114941;27;20416;-84
2023/04/17 12:19:28;;;;;;;11.27;10.03;;;15.20;99.90;;;;;;5140710;27;20421;-84
2023/04/17 12:21:56;;;;;;;11.80;10.60;;;15.10;99.90;;;;;;5108004;28;20446;-83
2023/04/17 12:24:23;;;;;;;11.10;9.30;;;15.30;99.90;;;;;;5124723;27;20494;-81
2023/04/17 12:26:51;;;;;;;10.80;9.60;;;15.40;99.90;;;;;;5123446;27;20481;-82
2023/04/17 12:29:19;;;;;;;13.50;10.90;;;15.50;99.90;;;;;;5114369;27;20842;-85
2023/04/17 12:32:02;;;;;;;13.20;10.33;;;15.50;99.90;;;;;;5122196;27;20464;-83
2023/04/17 12:34:30;;;;;;;10.50;9.27;;;15.60;99.90;;;;;;5115615;28;20495;-82
2023/04/17 12:37:01;;;;;;;10.87;9.77;;;15.60;99.90;;;;;;5138143;27;20500;-84